DUZEAR1 KBNL-KOGB
Flight info
| Callsign | DUZEAR1 |
|---|---|
| Flight time | 0h 20m |
| Altitude | 7000 |
| Route | KBNL/17 N0249F070 DCT YILDU DCT ZODUG DCT GACEC DCT WULKA DCT WEVLU DCT KOGB/23 |
| Aircraft | PC12/L-SDE2FGIRWY/SB1 |
Departure
| Time | 2026-05-05 22:27 |
|---|---|
| Airport | Barnwell Regional Airport (KBNL) |
Arrival
| Time | 2026-05-05 22:47 |
|---|---|
| Airport | Orangeburg Municipal Airport (KOGB) |
| Time | Latitude | Longitude | Altitude | Speed | Heading |
|---|---|---|---|---|---|
| 2026-05-05 22:16 | 33.26021 | -81.38144 | 251 ft | 0 kts | 255° |
| 2026-05-05 22:25 | 33.26032 | -81.38192 | 251 ft | 11 kts | 341° |
| 2026-05-05 22:25 | 33.26153 | -81.38233 | 251 ft | 26 kts | 346° |
| 2026-05-05 22:25 | 33.26298 | -81.38280 | 251 ft | 12 kts | 344° |
| 2026-05-05 22:25 | 33.26381 | -81.38310 | 251 ft | 9 kts | 323° |
| 2026-05-05 22:26 | 33.26461 | -81.38402 | 251 ft | 17 kts | 316° |
| 2026-05-05 22:26 | 33.26508 | -81.38518 | 251 ft | 21 kts | 252° |
| 2026-05-05 22:26 | 33.26464 | -81.38663 | 251 ft | 15 kts | 250° |
| 2026-05-05 22:26 | 33.26346 | -81.38671 | 251 ft | 38 kts | 160° |
| 2026-05-05 22:27 | 33.25864 | -81.38466 | 276 ft | 101 kts | 160° |
| 2026-05-05 22:27 | 33.25022 | -81.38117 | 448 ft | 149 kts | 160° |
| 2026-05-05 22:27 | 33.24220 | -81.37297 | 1095 ft | 161 kts | 135° |
| 2026-05-05 22:27 | 33.23449 | -81.36303 | 1879 ft | 161 kts | 132° |
| 2026-05-05 22:28 | 33.22725 | -81.35277 | 2773 ft | 155 kts | 127° |
| 2026-05-05 22:28 | 33.22340 | -81.34178 | 3931 ft | 139 kts | 109° |
| 2026-05-05 22:28 | 33.22273 | -81.32983 | 4715 ft | 150 kts | 88° |
| 2026-05-05 22:28 | 33.22539 | -81.31745 | 5522 ft | 156 kts | 76° |
| 2026-05-05 22:29 | 33.22854 | -81.30494 | 6310 ft | 161 kts | 77° |
| 2026-05-05 22:29 | 33.23189 | -81.29140 | 6844 ft | 175 kts | 76° |
| 2026-05-05 22:29 | 33.23567 | -81.27636 | 7013 ft | 208 kts | 76° |
| 2026-05-05 22:29 | 33.24013 | -81.25863 | 7019 ft | 233 kts | 75° |
| 2026-05-05 22:30 | 33.24491 | -81.23969 | 7011 ft | 242 kts | 75° |
| 2026-05-05 22:30 | 33.24978 | -81.22031 | 7000 ft | 244 kts | 75° |
| 2026-05-05 22:30 | 33.25466 | -81.20080 | 7006 ft | 246 kts | 75° |
| 2026-05-05 22:30 | 33.25951 | -81.18130 | 7006 ft | 245 kts | 75° |
| 2026-05-05 22:31 | 33.26414 | -81.16284 | 6999 ft | 245 kts | 75° |
| 2026-05-05 22:31 | 33.26969 | -81.14363 | 6999 ft | 246 kts | 68° |
| 2026-05-05 22:31 | 33.27671 | -81.12498 | 6998 ft | 247 kts | 68° |
| 2026-05-05 22:31 | 33.28378 | -81.10620 | 7002 ft | 248 kts | 68° |
| 2026-05-05 22:32 | 33.29074 | -81.08739 | 7000 ft | 247 kts | 68° |
| 2026-05-05 22:32 | 33.29768 | -81.06859 | 7003 ft | 248 kts | 68° |
| 2026-05-05 22:32 | 33.30466 | -81.04980 | 7003 ft | 248 kts | 68° |
| 2026-05-05 22:32 | 33.31165 | -81.03102 | 7008 ft | 247 kts | 68° |
| 2026-05-05 22:33 | 33.31875 | -81.01240 | 7000 ft | 247 kts | 64° |
| 2026-05-05 22:33 | 33.32762 | -80.99477 | 7001 ft | 247 kts | 60° |
| 2026-05-05 22:33 | 33.33603 | -80.97858 | 6982 ft | 217 kts | 60° |
| 2026-05-05 22:33 | 33.34387 | -80.96316 | 6989 ft | 214 kts | 60° |
| 2026-05-05 22:34 | 33.35150 | -80.94810 | 6995 ft | 211 kts | 60° |
| 2026-05-05 22:34 | 33.35917 | -80.93301 | 6993 ft | 214 kts | 60° |
| 2026-05-05 22:34 | 33.36691 | -80.91781 | 6992 ft | 214 kts | 60° |
| 2026-05-05 22:34 | 33.37463 | -80.90263 | 6997 ft | 214 kts | 60° |
| 2026-05-05 22:35 | 33.38235 | -80.88748 | 7001 ft | 212 kts | 61° |
| 2026-05-05 22:35 | 33.39001 | -80.87237 | 6991 ft | 212 kts | 61° |
| 2026-05-05 22:35 | 33.39742 | -80.85745 | 6991 ft | 212 kts | 62° |
| 2026-05-05 22:35 | 33.40488 | -80.84218 | 6989 ft | 212 kts | 62° |
| 2026-05-05 22:36 | 33.40740 | -80.83706 | 6999 ft | 212 kts | 62° |
| 2026-05-05 22:36 | 33.41986 | -80.81173 | 6992 ft | 213 kts | 62° |
| 2026-05-05 22:36 | 33.42740 | -80.79647 | 6992 ft | 213 kts | 62° |
| 2026-05-05 22:36 | 33.43445 | -80.78223 | 6985 ft | 183 kts | 62° |
| 2026-05-05 22:37 | 33.44096 | -80.76899 | 6990 ft | 179 kts | 62° |
| 2026-05-05 22:37 | 33.44726 | -80.75612 | 6991 ft | 180 kts | 62° |
| 2026-05-05 22:37 | 33.45362 | -80.74321 | 6992 ft | 181 kts | 62° |
| 2026-05-05 22:37 | 33.45997 | -80.73031 | 6989 ft | 178 kts | 62° |
| 2026-05-05 22:38 | 33.46623 | -80.71757 | 6990 ft | 179 kts | 62° |
| 2026-05-05 22:38 | 33.47255 | -80.70470 | 6991 ft | 181 kts | 62° |
| 2026-05-05 22:38 | 33.47894 | -80.69168 | 6854 ft | 180 kts | 62° |
| 2026-05-05 22:38 | 33.48524 | -80.67892 | 6649 ft | 179 kts | 62° |
| 2026-05-05 22:39 | 33.49151 | -80.66613 | 6398 ft | 177 kts | 62° |
| 2026-05-05 22:39 | 33.49771 | -80.65352 | 6192 ft | 176 kts | 63° |
| 2026-05-05 22:39 | 33.50406 | -80.64090 | 5938 ft | 178 kts | 57° |
| 2026-05-05 22:39 | 33.51336 | -80.63128 | 5710 ft | 178 kts | 29° |
| 2026-05-05 22:40 | 33.52508 | -80.62702 | 5476 ft | 177 kts | 3° |
| 2026-05-05 22:40 | 33.53715 | -80.62876 | 5246 ft | 175 kts | 338° |
| 2026-05-05 22:40 | 33.54746 | -80.63597 | 5015 ft | 170 kts | 314° |
| 2026-05-05 22:40 | 33.55542 | -80.64630 | 4797 ft | 169 kts | 307° |
| 2026-05-05 22:41 | 33.56336 | -80.65667 | 4574 ft | 169 kts | 308° |
| 2026-05-05 22:41 | 33.57135 | -80.66704 | 4341 ft | 169 kts | 308° |
| 2026-05-05 22:41 | 33.57928 | -80.67737 | 4112 ft | 168 kts | 308° |
| 2026-05-05 22:41 | 33.58660 | -80.68828 | 3890 ft | 168 kts | 294° |
| 2026-05-05 22:42 | 33.58975 | -80.70132 | 3678 ft | 160 kts | 269° |
| 2026-05-05 22:42 | 33.58849 | -80.71423 | 3471 ft | 154 kts | 246° |
| 2026-05-05 22:42 | 33.58340 | -80.72528 | 3267 ft | 150 kts | 225° |
| 2026-05-05 22:42 | 33.57588 | -80.73376 | 3077 ft | 149 kts | 217° |
| 2026-05-05 22:43 | 33.56837 | -80.74196 | 2892 ft | 147 kts | 218° |
| 2026-05-05 22:43 | 33.56075 | -80.75031 | 2692 ft | 149 kts | 218° |
| 2026-05-05 22:43 | 33.55306 | -80.75869 | 2488 ft | 149 kts | 218° |
| 2026-05-05 22:43 | 33.54550 | -80.76696 | 2291 ft | 149 kts | 219° |
| 2026-05-05 22:44 | 33.53765 | -80.77547 | 2081 ft | 147 kts | 219° |
| 2026-05-05 22:44 | 33.53082 | -80.78293 | 1888 ft | 115 kts | 219° |
| 2026-05-05 22:44 | 33.52524 | -80.78901 | 1697 ft | 109 kts | 218° |
| 2026-05-05 22:44 | 33.51954 | -80.79522 | 1615 ft | 115 kts | 219° |
| 2026-05-05 22:45 | 33.51371 | -80.80160 | 1475 ft | 111 kts | 219° |
| 2026-05-05 22:45 | 33.50808 | -80.80766 | 1326 ft | 105 kts | 219° |
| 2026-05-05 22:45 | 33.50282 | -80.81341 | 1198 ft | 104 kts | 219° |
| 2026-05-05 22:45 | 33.49753 | -80.81915 | 1061 ft | 100 kts | 219° |
| 2026-05-05 22:46 | 33.49243 | -80.82470 | 927 ft | 99 kts | 219° |
| 2026-05-05 22:46 | 33.48741 | -80.83014 | 792 ft | 95 kts | 219° |
| 2026-05-05 22:46 | 33.48268 | -80.83531 | 669 ft | 91 kts | 219° |
| 2026-05-05 22:46 | 33.47805 | -80.84034 | 550 ft | 89 kts | 220° |
| 2026-05-05 22:47 | 33.47351 | -80.84526 | 432 ft | 87 kts | 221° |
| 2026-05-05 22:47 | 33.46906 | -80.85015 | 320 ft | 86 kts | 221° |
| 2026-05-05 22:47 | 33.46481 | -80.85477 | 211 ft | 78 kts | 223° |
| 2026-05-05 22:47 | 33.46170 | -80.85814 | 209 ft | 24 kts | 221° |
| 2026-05-05 22:48 | 33.46076 | -80.85915 | 214 ft | 20 kts | 221° |
| 2026-05-05 22:48 | 33.46007 | -80.86011 | 207 ft | 12 kts | 286° |
| 2026-05-05 22:48 | 33.46081 | -80.86001 | 212 ft | 14 kts | 44° |
| 2026-05-05 22:48 | 33.46183 | -80.85890 | 210 ft | 21 kts | 42° |
| 2026-05-05 22:49 | 33.46259 | -80.85807 | 208 ft | 12 kts | 42° |
| 2026-05-05 22:49 | 33.46342 | -80.85716 | 202 ft | 11 kts | 43° |
| 2026-05-05 22:49 | 33.46397 | -80.85734 | 201 ft | 10 kts | 315° |
| 2026-05-05 22:49 | 33.46470 | -80.85731 | 205 ft | 15 kts | 43° |
| 2026-05-05 22:50 | 33.46542 | -80.85649 | 207 ft | 15 kts | 38° |
| 2026-05-05 22:50 | 33.46563 | -80.85608 | 210 ft | 3 kts | 71° |
| 2026-05-05 22:50 | 33.46564 | -80.85605 | 200 ft | 0 kts | 69° |